createdAt,value
2019-04-26T00:00:33.878Z,2.20
2019-04-26T00:01:33.850Z,1.10
2019-04-26T00:02:33.778Z,1.40
2019-04-26T00:03:33.726Z,1.00
2019-04-26T00:04:33.678Z,1.70
2019-04-26T00:05:35.696Z,0.70
2019-04-26T00:06:33.602Z,1.50
2019-04-26T00:07:33.527Z,1.70
2019-04-26T00:08:33.480Z,1.00
2019-04-26T00:09:33.429Z,1.30
2019-04-26T00:10:33.377Z,1.00
2019-04-26T00:11:33.351Z,1.00
2019-04-26T00:12:33.278Z,1.40
2019-04-26T00:13:33.230Z,1.30
2019-04-26T00:14:33.184Z,1.90
2019-04-26T00:15:33.128Z,1.30
2019-04-26T00:16:33.105Z,1.00
2019-04-26T00:17:33.053Z,1.70
2019-04-26T00:18:32.978Z,1.10
2019-04-26T00:19:32.931Z,1.80
2019-04-26T00:20:32.882Z,0.80
2019-04-26T00:21:32.829Z,1.60
2019-04-26T00:22:32.803Z,1.00
2019-04-26T00:23:32.733Z,1.40
2019-04-26T00:24:32.685Z,1.20
2019-04-26T00:25:32.637Z,1.10
2019-04-26T00:26:32.589Z,2.30
2019-04-26T00:27:32.559Z,1.20
2019-04-26T00:28:32.487Z,1.30
2019-04-26T00:29:32.433Z,1.30
2019-04-26T00:30:32.382Z,1.70
2019-04-26T00:31:32.340Z,1.30
2019-04-26T00:32:32.312Z,2.50
2019-04-26T00:33:32.234Z,1.40
2019-04-26T00:34:32.215Z,1.50
2019-04-26T00:35:32.132Z,1.20
2019-04-26T00:36:32.088Z,1.40
2019-04-26T00:37:32.064Z,1.90
2019-04-26T00:38:31.983Z,1.40
2019-04-26T00:39:32.066Z,1.40
2019-04-26T00:40:31.893Z,1.30
2019-04-26T00:41:31.838Z,1.50
2019-04-26T00:42:31.810Z,1.70
2019-04-26T00:43:31.735Z,2.10
2019-04-26T00:44:31.690Z,1.80
2019-04-26T00:45:31.632Z,1.50
2019-04-26T00:46:31.589Z,1.80
2019-04-26T00:47:31.562Z,1.40
2019-04-26T00:48:31.491Z,1.20
2019-04-26T00:49:43.160Z,1.80
2019-04-26T00:50:31.397Z,1.30
2019-04-26T00:51:31.332Z,2.10
2019-04-26T00:52:31.359Z,2.20
2019-04-26T00:53:31.235Z,1.30
2019-04-26T00:54:31.186Z,1.60
2019-04-26T00:55:31.137Z,1.80
2019-04-26T00:56:31.087Z,1.80
2019-04-26T00:57:31.071Z,1.50
2019-04-26T00:58:33.468Z,1.80
2019-04-26T00:59:30.943Z,1.70
2019-04-26T01:00:30.893Z,2.30
2019-04-26T01:01:30.837Z,1.30
2019-04-26T01:02:30.812Z,1.30
2019-04-26T01:03:30.739Z,1.50
2019-04-26T01:04:30.684Z,3.00
2019-04-26T01:05:30.635Z,1.40
2019-04-26T01:06:30.589Z,1.80
2019-04-26T01:07:30.566Z,1.40
2019-04-26T01:08:30.486Z,1.40
2019-04-26T01:09:30.434Z,2.00
2019-04-26T01:10:30.387Z,1.40
2019-04-26T01:11:30.348Z,1.40
2019-04-26T01:12:30.309Z,1.30
2019-04-26T01:13:30.235Z,1.60
2019-04-26T01:14:30.185Z,1.50
2019-04-26T01:15:30.134Z,2.60
2019-04-26T01:16:30.084Z,1.50
2019-04-26T01:17:30.056Z,1.60
2019-04-26T01:18:29.980Z,1.80
2019-04-26T01:19:29.933Z,1.70
2019-04-26T01:20:29.882Z,1.40
2019-04-26T01:21:29.830Z,1.40
2019-04-26T01:22:29.827Z,1.40
2019-04-26T01:23:29.731Z,1.50
2019-04-26T01:24:29.682Z,2.30
2019-04-26T01:25:29.632Z,1.90
2019-04-26T01:26:29.581Z,1.60
2019-04-26T01:27:29.554Z,1.70
2019-04-26T01:28:29.478Z,1.70
2019-04-26T01:29:29.428Z,1.80
2019-04-26T01:30:29.376Z,1.40
2019-04-26T01:31:29.334Z,1.70
2019-04-26T01:32:29.322Z,1.20
2019-04-26T01:33:29.230Z,1.50
2019-04-26T01:34:29.179Z,1.50
2019-04-26T01:35:29.131Z,2.40
2019-04-26T01:36:29.072Z,1.40
2019-04-26T01:37:29.027Z,1.60
2019-04-26T01:38:29.003Z,1.50
2019-04-26T01:39:28.922Z,1.50
2019-04-26T01:40:28.875Z,1.50
2019-04-26T01:41:28.826Z,1.60
2019-04-26T01:42:28.771Z,1.60
2019-04-26T01:43:28.751Z,1.80
2019-04-26T01:44:28.687Z,1.80
2019-04-26T01:45:28.618Z,1.90
2019-04-26T01:46:29.032Z,1.90
2019-04-26T01:47:28.518Z,2.40
2019-04-26T01:48:29.228Z,1.30
2019-04-26T01:49:28.420Z,2.40
2019-04-26T01:50:29.403Z,2.50
2019-04-26T01:51:28.778Z,1.70
2019-04-26T01:52:28.262Z,2.00
2019-04-26T01:53:28.778Z,2.10
2019-04-26T01:54:28.181Z,1.40
2019-04-26T01:55:29.076Z,2.00
2019-04-26T01:56:29.176Z,2.10
2019-04-26T01:57:28.013Z,1.50
2019-04-26T01:58:27.987Z,1.70
2019-04-26T01:59:27.928Z,1.60
2019-04-26T02:00:27.858Z,2.40
2019-04-26T02:01:27.810Z,1.50
2019-04-26T02:02:27.815Z,2.40
2019-04-26T02:03:27.839Z,2.30
2019-04-26T02:04:27.827Z,1.50
2019-04-26T02:05:28.031Z,1.70
2019-04-26T02:06:31.256Z,1.80
2019-04-26T02:07:28.312Z,1.60
2019-04-26T02:08:28.273Z,1.70
2019-04-26T02:09:28.403Z,1.90
2019-04-26T02:10:28.566Z,1.70
2019-04-26T02:11:27.302Z,1.70
2019-04-26T02:12:27.251Z,1.60
2019-04-26T02:13:27.223Z,2.10
2019-04-26T02:14:27.148Z,1.50
2019-04-26T02:15:27.251Z,1.60
2019-04-26T02:16:27.081Z,1.70
2019-04-26T02:17:27.271Z,1.80
2019-04-26T02:18:27.343Z,1.50
2019-04-26T02:19:27.495Z,1.60
2019-04-26T02:20:27.517Z,1.60
2019-04-26T02:21:27.872Z,2.40
2019-04-26T02:22:27.791Z,1.80
2019-04-26T02:23:27.850Z,1.70
2019-04-26T02:24:26.637Z,1.60
2019-04-26T02:25:26.587Z,4.10
2019-04-26T02:26:26.719Z,2.10
2019-04-26T02:27:26.485Z,2.60
2019-04-26T02:28:26.772Z,1.60
2019-04-26T02:29:26.822Z,1.80
2019-04-26T02:30:27.226Z,2.00
2019-04-26T02:31:27.343Z,1.80
2019-04-26T02:32:27.442Z,2.50
2019-04-26T02:33:27.435Z,1.80
2019-04-26T02:34:28.946Z,2.80
2019-04-26T02:35:27.076Z,2.00
2019-04-26T02:36:45.078Z,1.80
2019-04-26T02:37:28.171Z,2.00
2019-04-26T02:38:27.907Z,1.90
2019-04-26T02:39:26.321Z,2.30
2019-04-26T02:40:27.552Z,1.90
2019-04-26T02:41:27.505Z,2.10
2019-04-26T02:42:26.634Z,2.10
2019-04-26T02:43:27.861Z,2.20
2019-04-26T02:44:26.637Z,1.80
2019-04-26T02:45:28.332Z,2.00
2019-04-26T02:46:28.484Z,2.00
2019-04-26T02:47:26.694Z,2.00
2019-04-26T02:48:27.112Z,2.20
2019-04-26T02:49:27.500Z,2.30
2019-04-26T02:50:25.317Z,2.00
2019-04-26T02:51:25.266Z,2.00
2019-04-26T02:52:25.205Z,2.90
2019-04-26T02:53:25.182Z,2.10
2019-04-26T02:54:25.108Z,2.20
2019-04-26T02:55:25.056Z,2.20
2019-04-26T02:56:25.003Z,2.50
2019-04-26T02:57:24.950Z,3.30
2019-04-26T02:58:24.920Z,2.20
2019-04-26T02:59:24.877Z,2.30
2019-04-26T03:00:24.796Z,2.90
2019-04-26T03:01:24.742Z,2.60
2019-04-26T03:02:24.755Z,2.40
2019-04-26T03:03:24.644Z,2.40
2019-04-26T03:04:24.615Z,2.50
2019-04-26T03:05:24.548Z,2.90
2019-04-26T03:06:24.489Z,2.20
2019-04-26T03:07:24.433Z,2.70
2019-04-26T03:08:24.388Z,2.40
2019-04-26T03:09:24.359Z,2.50
2019-04-26T03:10:24.361Z,3.00
2019-04-26T03:11:24.239Z,3.20
2019-04-26T03:12:24.188Z,2.50
2019-04-26T03:13:24.129Z,2.90
2019-04-26T03:14:24.103Z,3.20
2019-04-26T03:15:24.031Z,2.70
2019-04-26T03:16:23.975Z,3.40
2019-04-26T03:17:23.917Z,3.20
2019-04-26T03:18:23.870Z,4.00
2019-04-26T03:19:23.845Z,3.70
2019-04-26T03:20:23.773Z,3.20
2019-04-26T03:21:23.714Z,3.50
2019-04-26T03:22:23.663Z,4.20
2019-04-26T03:23:23.616Z,4.30
2019-04-26T03:24:23.584Z,4.30
2019-04-26T03:25:23.511Z,4.40
2019-04-26T03:26:23.458Z,3.90
2019-04-26T03:27:23.402Z,4.00
2019-04-26T03:28:23.357Z,4.30
2019-04-26T03:29:23.327Z,5.00
2019-04-26T03:30:23.880Z,4.60
2019-04-26T03:31:23.247Z,5.10
2019-04-26T03:32:23.152Z,5.10
2019-04-26T03:33:23.460Z,5.70
2019-04-26T03:34:23.074Z,5.70
2019-04-26T03:35:23.022Z,6.10
2019-04-26T03:36:22.947Z,6.00
2019-04-26T03:37:22.899Z,5.90
2019-04-26T03:38:22.841Z,5.80
2019-04-26T03:39:22.886Z,5.30
2019-04-26T03:40:22.739Z,5.80
2019-04-26T03:41:22.692Z,5.80
2019-04-26T03:42:22.637Z,6.40
2019-04-26T03:43:22.584Z,6.90
2019-04-26T03:44:22.557Z,6.00
2019-04-26T03:45:22.479Z,6.40
2019-04-26T03:46:22.437Z,7.00
2019-04-26T03:47:22.373Z,6.70
2019-04-26T03:48:22.326Z,7.60
2019-04-26T03:49:22.310Z,7.40
2019-04-26T03:50:22.231Z,7.50
2019-04-26T03:51:22.177Z,7.50
2019-04-26T03:52:22.118Z,8.10
2019-04-26T03:53:22.068Z,7.90
2019-04-26T03:54:22.044Z,8.40
2019-04-26T03:55:21.965Z,7.60
2019-04-26T03:56:21.913Z,7.50
2019-04-26T03:57:21.868Z,7.90
2019-04-26T03:58:21.810Z,7.90
2019-04-26T03:59:21.782Z,7.10
2019-04-26T04:00:21.709Z,7.20
2019-04-26T04:01:21.658Z,7.30
2019-04-26T04:02:21.610Z,7.10
2019-04-26T04:03:21.558Z,7.00
2019-04-26T04:04:21.540Z,7.10
2019-04-26T04:05:21.455Z,7.00
2019-04-26T04:06:21.423Z,7.80
2019-04-26T04:07:36.100Z,7.70
2019-04-26T04:08:21.300Z,7.70
2019-04-26T04:09:21.270Z,8.00
2019-04-26T04:10:21.214Z,8.50
2019-04-26T04:11:21.199Z,8.30
2019-04-26T04:12:21.146Z,8.90
2019-04-26T04:13:21.041Z,9.40
2019-04-26T04:14:21.120Z,9.40
2019-04-26T04:15:20.944Z,9.70
2019-04-26T04:16:20.884Z,9.70
2019-04-26T04:17:20.836Z,10.00
2019-04-26T04:18:20.789Z,9.80
2019-04-26T04:19:20.757Z,9.40
2019-04-26T04:20:20.680Z,9.50
2019-04-26T04:21:20.625Z,9.80
2019-04-26T04:22:20.579Z,9.70
2019-04-26T04:23:20.524Z,9.00
2019-04-26T04:24:20.499Z,10.20
2019-04-26T04:25:20.419Z,9.60
2019-04-26T04:26:20.368Z,9.30
2019-04-26T04:27:20.314Z,10.50
2019-04-26T04:28:20.264Z,10.10
2019-04-26T04:29:20.214Z,10.30
2019-04-26T04:30:20.187Z,10.20
2019-04-26T04:31:20.111Z,10.50
2019-04-26T04:32:20.060Z,10.40
2019-04-26T04:33:20.007Z,10.20
2019-04-26T04:34:19.964Z,9.70
2019-04-26T04:35:19.929Z,8.60
2019-04-26T04:36:19.879Z,8.90
2019-04-26T04:37:19.804Z,9.10
2019-04-26T04:38:19.751Z,9.90
2019-04-26T04:39:19.700Z,9.50
2019-04-26T04:40:19.673Z,9.50
2019-04-26T04:41:19.597Z,9.50
2019-04-26T04:42:19.553Z,9.70
2019-04-26T04:43:19.609Z,9.80
2019-04-26T04:44:19.452Z,9.80
2019-04-26T04:45:19.422Z,9.60
2019-04-26T04:46:19.388Z,10.30
2019-04-26T04:47:24.604Z,10.30
2019-04-26T04:48:19.237Z,11.00
2019-04-26T04:49:19.203Z,10.70
2019-04-26T04:50:19.160Z,11.40
2019-04-26T04:51:19.088Z,10.70
2019-04-26T04:52:19.042Z,10.40
2019-04-26T04:53:18.986Z,10.70
2019-04-26T04:54:18.934Z,10.20
2019-04-26T04:55:18.905Z,9.70
2019-04-26T04:56:18.835Z,10.10
2019-04-26T04:57:18.782Z,11.30
2019-04-26T04:58:18.728Z,11.10
2019-04-26T04:59:18.678Z,10.40
2019-04-26T05:00:18.656Z,12.20
2019-04-26T05:01:18.577Z,10.10
2019-04-26T05:02:18.525Z,10.70
2019-04-26T05:03:18.478Z,10.30
2019-04-26T05:04:18.425Z,10.70
2019-04-26T05:05:18.392Z,10.50
2019-04-26T05:06:18.320Z,11.80
2019-04-26T05:07:18.268Z,11.70
2019-04-26T05:08:18.217Z,11.50
2019-04-26T05:09:18.169Z,11.50
2019-04-26T05:10:18.134Z,11.90
2019-04-26T05:11:18.065Z,11.40
2019-04-26T05:12:18.012Z,11.30
2019-04-26T05:13:17.960Z,11.00
2019-04-26T05:14:17.909Z,11.70
2019-04-26T05:15:17.881Z,11.20
2019-04-26T05:16:17.811Z,11.50
2019-04-26T05:17:17.755Z,11.00
2019-04-26T05:18:17.707Z,12.50
2019-04-26T05:19:17.658Z,13.60
2019-04-26T05:20:17.629Z,13.30
2019-04-26T05:21:17.553Z,13.30
2019-04-26T05:22:17.503Z,12.80
2019-04-26T05:23:17.451Z,11.90
2019-04-26T05:24:17.399Z,11.90
2019-04-26T05:25:17.373Z,12.20
2019-04-26T05:26:17.301Z,14.10
2019-04-26T05:27:17.251Z,11.80
2019-04-26T05:28:17.198Z,12.30
2019-04-26T05:29:17.145Z,12.50
2019-04-26T05:30:17.120Z,12.50
2019-04-26T05:31:17.048Z,12.40
2019-04-26T05:32:16.991Z,13.00
2019-04-26T05:33:16.942Z,12.20
2019-04-26T05:34:16.890Z,13.10
2019-04-26T05:35:16.864Z,11.90
2019-04-26T05:36:16.815Z,12.00
2019-04-26T05:37:16.745Z,13.00
2019-04-26T05:38:18.716Z,13.40
2019-04-26T05:39:16.636Z,12.80
2019-04-26T05:40:16.610Z,12.80
2019-04-26T05:41:16.542Z,12.10
2019-04-26T05:42:16.486Z,12.70
2019-04-26T05:43:16.428Z,12.20
2019-04-26T05:44:16.405Z,12.30
2019-04-26T05:45:16.354Z,13.00
2019-04-26T05:46:16.301Z,12.60
2019-04-26T05:47:16.278Z,12.50
2019-04-26T05:48:16.178Z,12.80
2019-04-26T05:49:16.128Z,13.00
2019-04-26T05:50:16.071Z,12.60
2019-04-26T05:51:16.048Z,12.40
2019-04-26T05:52:15.974Z,12.60
2019-04-26T05:53:15.922Z,12.60
2019-04-26T05:54:15.871Z,12.80
2019-04-26T05:55:15.819Z,12.70
2019-04-26T05:56:15.799Z,13.00
2019-04-26T05:57:15.727Z,13.00
2019-04-26T05:58:15.669Z,13.00
2019-04-26T05:59:15.618Z,12.70
2019-04-26T06:00:15.569Z,12.20
2019-04-26T06:01:15.542Z,13.10
2019-04-26T06:02:15.484Z,12.40
2019-04-26T06:03:15.416Z,13.00
2019-04-26T06:04:15.368Z,13.40
2019-04-26T06:05:15.318Z,13.00
2019-04-26T06:06:15.290Z,12.20
2019-04-26T06:07:15.214Z,13.20
2019-04-26T06:08:15.169Z,12.20
2019-04-26T06:09:15.116Z,12.70
2019-04-26T06:10:15.064Z,13.50
2019-04-26T06:11:15.038Z,13.50
2019-04-26T06:12:14.960Z,13.20
2019-04-26T06:13:14.910Z,13.70
2019-04-26T06:14:14.858Z,13.00
2019-04-26T06:15:14.811Z,13.00
2019-04-26T06:16:14.785Z,13.50
2019-04-26T06:17:14.710Z,14.00
2019-04-26T06:18:14.660Z,13.00
2019-04-26T06:19:14.605Z,13.00
2019-04-26T06:20:22.581Z,12.90
2019-04-26T06:21:14.536Z,13.20
2019-04-26T06:22:14.456Z,12.60
2019-04-26T06:23:14.405Z,15.50
2019-04-26T06:24:14.362Z,16.80
2019-04-26T06:25:14.315Z,14.50
2019-04-26T06:26:14.283Z,12.50
2019-04-26T06:27:14.487Z,13.30
2019-04-26T06:28:14.151Z,15.00
2019-04-26T06:29:14.105Z,13.90
2019-04-26T06:30:14.053Z,14.50
2019-04-26T06:31:14.026Z,16.80
2019-04-26T06:32:13.955Z,13.60
2019-04-26T06:33:15.165Z,12.70
2019-04-26T06:34:13.852Z,14.10
2019-04-26T06:35:13.802Z,12.60
2019-04-26T06:36:13.837Z,12.30
2019-04-26T06:37:13.701Z,12.40
2019-04-26T06:38:13.650Z,12.30
2019-04-26T06:39:13.599Z,12.60
2019-04-26T06:40:13.548Z,13.00
2019-04-26T06:41:13.524Z,11.80
2019-04-26T06:42:13.449Z,11.80
2019-04-26T06:43:13.402Z,13.10
2019-04-26T06:44:13.349Z,11.80
2019-04-26T06:45:13.299Z,11.60
2019-04-26T06:46:13.275Z,11.90
2019-04-26T06:47:13.200Z,11.60
2019-04-26T06:48:13.148Z,13.30
2019-04-26T06:49:13.096Z,11.60
2019-04-26T06:50:13.049Z,11.00
2019-04-26T06:51:24.170Z,11.60
2019-04-26T06:52:12.972Z,12.10
2019-04-26T06:53:12.895Z,12.80
2019-04-26T06:54:12.845Z,11.80
2019-04-26T06:55:12.797Z,11.40
2019-04-26T06:56:12.746Z,11.70
2019-04-26T06:57:15.180Z,11.50
2019-04-26T06:58:13.111Z,11.50
2019-04-26T06:59:12.601Z,11.40
2019-04-26T07:00:12.543Z,11.50
2019-04-26T07:01:12.497Z,11.00
2019-04-26T07:02:12.476Z,11.30
2019-04-26T07:03:12.395Z,10.60
2019-04-26T07:04:12.706Z,11.70
2019-04-26T07:05:15.069Z,10.60
2019-04-26T07:06:12.277Z,10.80
2019-04-26T07:07:13.329Z,10.50
2019-04-26T07:08:12.710Z,10.70
2019-04-26T07:09:12.093Z,10.70
2019-04-26T07:10:12.038Z,10.50
2019-04-26T07:11:12.011Z,10.00
2019-04-26T07:12:11.963Z,9.60
2019-04-26T07:13:14.736Z,10.10
2019-04-26T07:14:11.837Z,10.00
2019-04-26T07:15:12.139Z,10.10
2019-04-26T07:16:22.411Z,9.70
2019-04-26T07:17:12.242Z,10.10
2019-04-26T07:18:12.761Z,9.90
2019-04-26T07:19:11.587Z,10.00
2019-04-26T07:20:11.655Z,9.90
2019-04-26T07:21:11.487Z,9.40
2019-04-26T07:22:11.461Z,9.60
2019-04-26T07:23:12.585Z,9.60
2019-04-26T07:24:11.340Z,10.40
2019-04-26T07:25:11.284Z,9.70
2019-04-26T07:26:11.238Z,8.60
2019-04-26T07:27:11.216Z,9.60
2019-04-26T07:28:12.419Z,10.00
2019-04-26T07:29:11.312Z,9.00
2019-04-26T07:30:12.026Z,9.10
2019-04-26T07:31:11.000Z,9.40
2019-04-26T07:32:11.559Z,9.60
2019-04-26T07:33:10.880Z,9.00
2019-04-26T07:34:11.493Z,9.20
2019-04-26T07:35:10.783Z,8.90
2019-04-26T07:36:11.933Z,9.40
2019-04-26T07:37:11.389Z,8.70
2019-04-26T07:38:11.088Z,9.30
2019-04-26T07:39:19.667Z,9.20
2019-04-26T07:40:11.436Z,9.40
2019-04-26T07:41:11.427Z,9.50
2019-04-26T07:42:11.507Z,8.90
2019-04-26T07:43:10.442Z,9.10
2019-04-26T07:44:10.328Z,9.40
2019-04-26T07:45:10.332Z,9.40
2019-04-26T07:46:10.645Z,9.20
2019-04-26T07:47:11.087Z,9.50
2019-04-26T07:48:10.126Z,8.90
2019-04-26T07:49:10.276Z,9.50
2019-04-26T07:50:10.025Z,9.30
2019-04-26T07:51:09.972Z,8.90
2019-04-26T07:52:10.537Z,9.00
2019-04-26T07:53:09.861Z,8.60
2019-04-26T07:54:09.828Z,8.20
2019-04-26T07:55:10.799Z,8.50
2019-04-26T07:56:09.720Z,8.70
2019-04-26T07:57:10.746Z,8.30
2019-04-26T07:58:09.622Z,9.20
2019-04-26T07:59:10.601Z,9.20
2019-04-26T08:00:09.518Z,8.20
2019-04-26T08:01:09.914Z,9.70
2019-04-26T08:02:09.439Z,9.10
2019-04-26T08:03:09.368Z,8.90
2019-04-26T08:04:09.502Z,8.80
2019-04-26T08:05:09.554Z,8.60
2019-04-26T08:06:09.629Z,8.60
2019-04-26T08:07:10.287Z,9.00
2019-04-26T08:08:09.115Z,9.50
2019-04-26T08:09:10.795Z,9.10
2019-04-26T08:10:09.957Z,9.90
2019-04-26T08:11:08.965Z,9.60
2019-04-26T08:12:09.981Z,10.00
2019-04-26T08:13:09.991Z,9.90
2019-04-26T08:14:08.814Z,10.60
2019-04-26T08:15:09.047Z,10.30
2019-04-26T08:16:08.743Z,10.10
2019-04-26T08:17:08.660Z,9.30
2019-04-26T08:18:08.659Z,10.20
2019-04-26T08:19:08.564Z,10.00
2019-04-26T08:20:10.672Z,9.20
2019-04-26T08:21:13.652Z,10.00
2019-04-26T08:22:17.927Z,9.70
2019-04-26T08:23:14.485Z,10.70
2019-04-26T08:24:08.304Z,10.20
2019-04-26T08:25:08.310Z,9.70
2019-04-26T08:26:09.140Z,9.90
2019-04-26T08:27:16.066Z,9.70
2019-04-26T08:28:08.430Z,10.00
2019-04-26T08:29:08.485Z,10.00
2019-04-26T08:30:12.850Z,9.30
2019-04-26T08:31:08.958Z,9.80
2019-04-26T08:32:08.855Z,10.10
2019-04-26T08:33:11.358Z,9.80
2019-04-26T08:34:08.713Z,10.10
2019-04-26T08:35:14.374Z,11.60
2019-04-26T08:36:08.759Z,13.80
2019-04-26T08:37:08.089Z,15.10
2019-04-26T08:38:13.713Z,12.10
2019-04-26T08:39:08.267Z,15.90
2019-04-26T08:40:07.479Z,13.80
2019-04-26T08:41:08.585Z,19.10
2019-04-26T08:42:11.893Z,13.60
2019-04-26T08:43:07.360Z,16.40
2019-04-26T08:44:08.619Z,14.70
2019-04-26T08:45:10.105Z,14.80
2019-04-26T08:46:10.420Z,17.20
2019-04-26T08:47:15.103Z,17.10
2019-04-26T08:48:07.902Z,16.00
2019-04-26T08:49:07.012Z,16.80
2019-04-26T08:50:09.650Z,16.90
2019-04-26T08:51:06.923Z,14.50
2019-04-26T08:52:14.176Z,16.00
2019-04-26T08:53:06.832Z,15.60
2019-04-26T08:54:06.766Z,15.00
2019-04-26T08:55:06.721Z,15.00
2019-04-26T08:56:06.666Z,15.40
2019-04-26T08:57:06.633Z,15.00
2019-04-26T08:58:06.581Z,17.20
2019-04-26T08:59:06.506Z,16.20
2019-04-26T09:00:06.459Z,14.40
2019-04-26T09:01:06.407Z,15.10
2019-04-26T09:02:06.348Z,15.40
2019-04-26T09:03:11.666Z,14.50
2019-04-26T09:04:06.254Z,16.50
2019-04-26T09:05:06.209Z,14.00
2019-04-26T09:06:06.157Z,14.10
2019-04-26T09:07:06.165Z,14.10
2019-04-26T09:08:06.072Z,15.10
2019-04-26T09:09:05.996Z,16.00
2019-04-26T09:10:11.212Z,13.30
2019-04-26T09:11:05.894Z,15.20
2019-04-26T09:12:08.199Z,15.60
2019-04-26T09:13:05.819Z,14.40
2019-04-26T09:14:05.740Z,14.50
2019-04-26T09:15:05.688Z,16.00
2019-04-26T09:16:05.669Z,14.80
2019-04-26T09:17:05.586Z,14.10
2019-04-26T09:18:06.128Z,16.40
2019-04-26T09:19:05.481Z,17.50
2019-04-26T09:20:07.837Z,14.40
2019-04-26T09:21:05.374Z,15.40
2019-04-26T09:22:12.879Z,14.90
2019-04-26T09:23:05.294Z,15.30
2019-04-26T09:24:08.090Z,15.10
2019-04-26T09:25:05.170Z,14.10
2019-04-26T09:26:08.664Z,14.50
2019-04-26T09:27:05.071Z,14.50
2019-04-26T09:28:05.052Z,15.10
2019-04-26T09:29:04.969Z,15.90
2019-04-26T09:30:06.233Z,15.50
2019-04-26T09:31:04.861Z,14.50
2019-04-26T09:32:04.819Z,16.20
2019-04-26T09:33:04.811Z,14.70
2019-04-26T09:34:06.442Z,16.40
2019-04-26T09:35:04.664Z,15.80
2019-04-26T09:36:04.609Z,15.40
2019-04-26T09:37:04.569Z,15.60
2019-04-26T09:38:04.510Z,14.70
2019-04-26T09:39:08.288Z,14.70
2019-04-26T09:40:10.667Z,13.60
2019-04-26T09:41:04.356Z,13.90
2019-04-26T09:42:05.948Z,14.50
2019-04-26T09:43:04.255Z,14.70
2019-04-26T09:44:04.228Z,13.80
2019-04-26T09:45:04.149Z,14.00
2019-04-26T09:46:04.095Z,12.60
2019-04-26T09:47:04.050Z,12.90
2019-04-26T09:48:03.998Z,12.00
2019-04-26T09:49:06.932Z,11.40
2019-04-26T09:50:03.894Z,12.50
2019-04-26T09:51:03.845Z,12.50
2019-04-26T09:52:03.788Z,13.40
2019-04-26T09:53:03.732Z,13.70
2019-04-26T09:54:03.709Z,12.70
2019-04-26T09:55:03.641Z,12.50
2019-04-26T09:56:03.587Z,11.80
2019-04-26T09:57:03.531Z,12.40
2019-04-26T09:58:03.480Z,11.70
2019-04-26T09:59:05.584Z,11.60
2019-04-26T10:00:03.381Z,11.30
2019-04-26T10:01:06.066Z,10.50
2019-04-26T10:02:03.277Z,10.90
2019-04-26T10:03:05.401Z,11.20
2019-04-26T10:04:03.200Z,10.90
2019-04-26T10:05:03.119Z,10.50
2019-04-26T10:06:03.067Z,9.70
2019-04-26T10:07:04.070Z,9.70
2019-04-26T10:08:02.975Z,10.20
2019-04-26T10:09:02.943Z,9.70
2019-04-26T10:10:02.871Z,10.10
2019-04-26T10:11:05.749Z,9.80
2019-04-26T10:12:02.769Z,9.00
2019-04-26T10:13:02.718Z,9.80
2019-04-26T10:14:02.692Z,9.80
2019-04-26T10:15:02.614Z,8.50
2019-04-26T10:16:02.931Z,9.30
2019-04-26T10:17:02.516Z,9.00
2019-04-26T10:18:02.465Z,9.30
2019-04-26T10:19:02.435Z,9.30
2019-04-26T10:20:02.362Z,9.80
2019-04-26T10:21:02.311Z,9.70
2019-04-26T10:22:02.259Z,9.60
2019-04-26T10:23:02.207Z,9.80
2019-04-26T10:24:02.176Z,9.10
2019-04-26T10:25:06.825Z,10.00
2019-04-26T10:26:02.060Z,9.90
2019-04-26T10:27:03.410Z,10.30
2019-04-26T10:28:01.957Z,11.40
2019-04-26T10:29:01.923Z,10.10
2019-04-26T10:30:07.786Z,11.10
2019-04-26T10:31:01.806Z,10.30
2019-04-26T10:32:01.790Z,10.90
2019-04-26T10:33:02.176Z,10.20
2019-04-26T10:34:01.676Z,9.70
2019-04-26T10:35:01.603Z,10.00
2019-04-26T10:36:01.554Z,10.70
2019-04-26T10:37:05.793Z,10.60
2019-04-26T10:38:01.462Z,11.30
2019-04-26T10:39:01.422Z,10.10
2019-04-26T10:40:01.338Z,11.10
2019-04-26T10:41:01.291Z,11.60
2019-04-26T10:42:01.244Z,11.90
2019-04-26T10:43:01.198Z,10.20
2019-04-26T10:44:01.160Z,11.90
2019-04-26T10:45:01.093Z,10.20
2019-04-26T10:46:01.042Z,10.90
2019-04-26T10:47:04.414Z,11.70
2019-04-26T10:48:00.939Z,12.40
2019-04-26T10:49:08.567Z,11.60
2019-04-26T10:50:00.856Z,10.30
2019-04-26T10:51:03.350Z,12.50
2019-04-26T10:52:00.742Z,11.90
2019-04-26T10:53:00.690Z,13.00
2019-04-26T10:54:01.612Z,11.10
2019-04-26T10:55:01.070Z,12.00
2019-04-26T10:56:00.541Z,10.70
2019-04-26T10:57:00.488Z,11.10
2019-04-26T10:58:00.445Z,12.00
2019-04-26T10:59:00.393Z,11.90
2019-04-26T11:00:00.359Z,11.60
2019-04-26T11:01:00.287Z,12.70
2019-04-26T11:02:00.238Z,13.50
2019-04-26T11:03:04.337Z,12.00
2019-04-26T11:04:00.136Z,12.40
2019-04-26T11:05:00.109Z,12.70
2019-04-26T11:06:00.034Z,12.70
2019-04-26T11:07:01.996Z,12.60
2019-04-26T11:07:59.936Z,12.10
2019-04-26T11:08:59.884Z,11.70
2019-04-26T11:10:02.826Z,12.30
2019-04-26T11:10:59.789Z,11.70
2019-04-26T11:11:59.734Z,12.20
2019-04-26T11:12:59.683Z,12.60
2019-04-26T11:13:59.636Z,12.00
2019-04-26T11:14:59.611Z,12.80
2019-04-26T11:16:02.482Z,12.30
2019-04-26T11:16:59.489Z,11.90
2019-04-26T11:17:59.430Z,13.00
2019-04-26T11:19:01.107Z,13.00
2019-04-26T11:19:59.354Z,13.00
2019-04-26T11:20:59.309Z,14.50
2019-04-26T11:21:59.233Z,15.10
2019-04-26T11:22:59.185Z,15.10
2019-04-26T11:23:59.138Z,15.90
2019-04-26T11:24:59.108Z,17.80
2019-04-26T11:26:01.627Z,17.20
2019-04-26T11:26:58.980Z,18.30
2019-04-26T11:27:58.931Z,18.80
2019-04-26T11:28:58.876Z,21.20
2019-04-26T11:29:59.287Z,18.30
2019-04-26T11:30:58.797Z,20.50
2019-04-26T11:32:02.814Z,21.10
2019-04-26T11:32:58.682Z,19.60
2019-04-26T11:34:05.120Z,20.70
2019-04-26T11:35:00.275Z,20.60
2019-04-26T11:35:58.547Z,23.30
2019-04-26T11:36:58.550Z,23.60
2019-04-26T11:37:58.425Z,23.50
2019-04-26T11:39:01.393Z,26.10
2019-04-26T11:39:58.357Z,24.40
2019-04-26T11:41:06.013Z,25.00
2019-04-26T11:41:58.229Z,24.10
2019-04-26T11:42:58.178Z,27.20
2019-04-26T11:43:58.130Z,28.00
2019-04-26T11:45:05.916Z,26.70
2019-04-26T11:46:04.136Z,26.10
2019-04-26T11:46:59.290Z,25.90
2019-04-26T11:47:57.935Z,28.50
2019-04-26T11:48:59.268Z,27.60
2019-04-26T11:49:57.884Z,29.00
2019-04-26T11:50:57.780Z,30.60
2019-04-26T11:51:58.619Z,27.50
2019-04-26T11:52:57.670Z,28.40
2019-04-26T11:53:57.624Z,30.00
2019-04-26T11:54:57.598Z,27.50
2019-04-26T11:56:00.234Z,26.00
2019-04-26T11:56:57.474Z,25.90
2019-04-26T11:57:57.431Z,26.50
2019-04-26T11:58:58.385Z,26.30
2019-04-26T11:59:57.348Z,26.60
2019-04-26T12:00:57.273Z,25.90
2019-04-26T12:01:57.223Z,25.10
2019-04-26T12:02:57.152Z,25.60
2019-04-26T12:03:59.433Z,27.60
2019-04-26T12:04:59.591Z,26.70
2019-04-26T12:05:57.023Z,25.20
2019-04-26T12:06:56.976Z,27.70
2019-04-26T12:07:56.921Z,26.30
2019-04-26T12:08:57.190Z,26.40
2019-04-26T12:09:56.865Z,26.30
2019-04-26T12:10:56.777Z,26.90
2019-04-26T12:12:04.386Z,27.00
2019-04-26T12:13:05.625Z,26.10
2019-04-26T12:13:59.479Z,26.20
2019-04-26T12:14:56.575Z,27.00
2019-04-26T12:15:56.548Z,25.20
2019-04-26T12:16:59.711Z,25.70
2019-04-26T12:17:58.637Z,25.80
2019-04-26T12:18:56.366Z,28.50
2019-04-26T12:19:56.318Z,26.00
2019-04-26T12:20:57.130Z,26.30
2019-04-26T12:21:56.221Z,26.70
2019-04-26T12:22:56.169Z,27.40
2019-04-26T12:23:56.421Z,28.00
2019-04-26T12:24:56.068Z,27.90
2019-04-26T12:25:56.042Z,26.80
2019-04-26T12:26:57.483Z,27.60
2019-04-26T12:27:55.969Z,28.40
2019-04-26T12:28:55.866Z,28.90
2019-04-26T12:29:55.815Z,27.90
2019-04-26T12:30:58.445Z,29.80
2019-04-26T12:31:55.722Z,29.70
2019-04-26T12:32:55.676Z,29.60
2019-04-26T12:33:55.619Z,30.20
2019-04-26T12:34:55.566Z,28.70
2019-04-26T12:35:57.189Z,31.30
2019-04-26T12:36:55.468Z,30.90
2019-04-26T12:37:55.857Z,33.50
2019-04-26T12:38:58.160Z,31.90
2019-04-26T12:39:55.319Z,30.60
2019-04-26T12:40:55.292Z,32.60
2019-04-26T12:41:55.211Z,32.40
2019-04-26T12:42:55.165Z,30.00
2019-04-26T12:43:59.637Z,32.30
2019-04-26T12:44:55.066Z,32.60
2019-04-26T12:45:55.034Z,33.70
2019-04-26T12:46:54.967Z,32.00
2019-04-26T12:47:54.918Z,33.80
2019-04-26T12:48:54.865Z,32.30
2019-04-26T12:49:58.940Z,33.20
2019-04-26T12:50:54.789Z,31.80
2019-04-26T12:51:54.717Z,32.30
2019-04-26T12:52:55.614Z,31.90
2019-04-26T12:53:54.610Z,32.10
2019-04-26T12:54:54.563Z,30.70
2019-04-26T12:55:58.174Z,30.80
2019-04-26T12:56:54.465Z,32.70
2019-04-26T12:57:54.408Z,32.40
2019-04-26T12:58:54.369Z,33.60
2019-04-26T12:59:57.595Z,33.00
2019-04-26T13:00:54.685Z,33.20
2019-04-26T13:02:05.004Z,32.50
2019-04-26T13:02:55.729Z,33.10
2019-04-26T13:03:54.105Z,31.70